APG343 RPLL-RPVR
Flight info
| Callsign | APG343 |
|---|---|
| Flight time | 0h 37m |
| Altitude | 27000 |
| Route | IPATA4V IPATA DCT SAGAM TR16 SIBUN DCT |
| Aircraft | A320/M-SDE3FGHIRWY/LB1 |
Departure
| Time | 2026-05-05 04:43 |
|---|---|
| Airport | Ninoy Aquino International Airport (RPLL) |
Arrival
| Time | 2026-05-05 05:20 |
|---|---|
| Airport | Roxas Airport (RPVR) |
| Time | Latitude | Longitude | Altitude | Speed | Heading |
|---|---|---|---|---|---|
| 2026-05-05 04:28 | 14.50855 | 121.01279 | 82 ft | 0 kts | 330° |
| 2026-05-05 04:31 | 14.50854 | 121.01279 | 82 ft | 2 kts | 330° |
| 2026-05-05 04:32 | 14.50841 | 121.01287 | 82 ft | 2 kts | 330° |
| 2026-05-05 04:32 | 14.50827 | 121.01296 | 82 ft | 2 kts | 330° |
| 2026-05-05 04:32 | 14.50814 | 121.01303 | 82 ft | 2 kts | 329° |
| 2026-05-05 04:32 | 14.50801 | 121.01311 | 82 ft | 2 kts | 330° |
| 2026-05-05 04:33 | 14.50788 | 121.01319 | 82 ft | 2 kts | 330° |
| 2026-05-05 04:33 | 14.50774 | 121.01327 | 82 ft | 2 kts | 339° |
| 2026-05-05 04:33 | 14.50756 | 121.01324 | 82 ft | 2 kts | 45° |
| 2026-05-05 04:33 | 14.50752 | 121.01319 | 82 ft | 1 kts | 61° |
| 2026-05-05 04:34 | 14.50775 | 121.01356 | 82 ft | 6 kts | 60° |
| 2026-05-05 04:34 | 14.50789 | 121.01382 | 82 ft | 1 kts | 60° |
| 2026-05-05 04:34 | 14.50789 | 121.01384 | 82 ft | 0 kts | 60° |
| 2026-05-05 04:36 | 14.50792 | 121.01389 | 82 ft | 1 kts | 60° |
| 2026-05-05 04:36 | 14.50801 | 121.01405 | 82 ft | 3 kts | 59° |
| 2026-05-05 04:36 | 14.50814 | 121.01427 | 82 ft | 4 kts | 61° |
| 2026-05-05 04:37 | 14.50834 | 121.01464 | 82 ft | 7 kts | 61° |
| 2026-05-05 04:37 | 14.50864 | 121.01520 | 82 ft | 9 kts | 62° |
| 2026-05-05 04:37 | 14.50905 | 121.01593 | 82 ft | 11 kts | 58° |
| 2026-05-05 04:37 | 14.50952 | 121.01678 | 82 ft | 13 kts | 60° |
| 2026-05-05 04:38 | 14.51000 | 121.01762 | 82 ft | 12 kts | 51° |
| 2026-05-05 04:38 | 14.51057 | 121.01754 | 82 ft | 9 kts | 315° |
| 2026-05-05 04:38 | 14.51111 | 121.01698 | 82 ft | 12 kts | 315° |
| 2026-05-05 04:38 | 14.51182 | 121.01626 | 82 ft | 15 kts | 314° |
| 2026-05-05 04:39 | 14.51269 | 121.01534 | 82 ft | 18 kts | 315° |
| 2026-05-05 04:39 | 14.51371 | 121.01430 | 82 ft | 20 kts | 314° |
| 2026-05-05 04:39 | 14.51479 | 121.01318 | 82 ft | 22 kts | 314° |
| 2026-05-05 04:39 | 14.51597 | 121.01195 | 82 ft | 24 kts | 315° |
| 2026-05-05 04:40 | 14.51723 | 121.01067 | 82 ft | 26 kts | 315° |
| 2026-05-05 04:40 | 14.51858 | 121.00929 | 82 ft | 27 kts | 316° |
| 2026-05-05 04:40 | 14.51996 | 121.00787 | 82 ft | 28 kts | 316° |
| 2026-05-05 04:40 | 14.52136 | 121.00641 | 82 ft | 29 kts | 315° |
| 2026-05-05 04:41 | 14.52280 | 121.00487 | 82 ft | 29 kts | 308° |
| 2026-05-05 04:41 | 14.52358 | 121.00394 | 82 ft | 8 kts | 336° |
| 2026-05-05 04:41 | 14.52400 | 121.00383 | 82 ft | 0 kts | 317° |
| 2026-05-05 04:41 | 14.52397 | 121.00378 | 82 ft | 1 kts | 202° |
| 2026-05-05 04:42 | 14.52384 | 121.00384 | 82 ft | 2 kts | 131° |
| 2026-05-05 04:42 | 14.52318 | 121.00452 | 82 ft | 41 kts | 135° |
| 2026-05-05 04:42 | 14.51924 | 121.00858 | 82 ft | 114 kts | 134° |
| 2026-05-05 04:42 | 14.51208 | 121.01609 | 230 ft | 157 kts | 134° |
| 2026-05-05 04:43 | 14.50410 | 121.02483 | 974 ft | 153 kts | 134° |
| 2026-05-05 04:43 | 14.49633 | 121.03277 | 1689 ft | 150 kts | 132° |
| 2026-05-05 04:43 | 14.48878 | 121.04004 | 2172 ft | 151 kts | 133° |
| 2026-05-05 04:43 | 14.48098 | 121.04815 | 2415 ft | 169 kts | 131° |
| 2026-05-05 04:44 | 14.47230 | 121.05726 | 2756 ft | 183 kts | 131° |
| 2026-05-05 04:44 | 14.46290 | 121.06682 | 3100 ft | 198 kts | 132° |
| 2026-05-05 04:44 | 14.45276 | 121.07740 | 3416 ft | 217 kts | 132° |
| 2026-05-05 04:44 | 14.44169 | 121.08901 | 3764 ft | 236 kts | 129° |
| 2026-05-05 04:45 | 14.43238 | 121.10354 | 4142 ft | 251 kts | 111° |
| 2026-05-05 04:45 | 14.42761 | 121.12117 | 4668 ft | 261 kts | 100° |
| 2026-05-05 04:45 | 14.42438 | 121.13963 | 5400 ft | 264 kts | 99° |
| 2026-05-05 04:45 | 14.42119 | 121.15829 | 6173 ft | 267 kts | 99° |
| 2026-05-05 04:46 | 14.41790 | 121.17707 | 6923 ft | 269 kts | 100° |
| 2026-05-05 04:46 | 14.41455 | 121.19589 | 7666 ft | 272 kts | 100° |
| 2026-05-05 04:46 | 14.41106 | 121.21510 | 8395 ft | 274 kts | 102° |
| 2026-05-05 04:46 | 14.40501 | 121.23379 | 9070 ft | 278 kts | 115° |
| 2026-05-05 04:47 | 14.39474 | 121.25085 | 9741 ft | 282 kts | 126° |
| 2026-05-05 04:47 | 14.38249 | 121.26698 | 10364 ft | 287 kts | 127° |
| 2026-05-05 04:47 | 14.36972 | 121.28336 | 10708 ft | 303 kts | 127° |
| 2026-05-05 04:47 | 14.35609 | 121.30085 | 11006 ft | 319 kts | 127° |
| 2026-05-05 04:48 | 14.34187 | 121.31917 | 11307 ft | 333 kts | 127° |
| 2026-05-05 04:48 | 14.32730 | 121.33800 | 11832 ft | 338 kts | 127° |
| 2026-05-05 04:48 | 14.31260 | 121.35702 | 12393 ft | 341 kts | 127° |
| 2026-05-05 04:48 | 14.29760 | 121.37647 | 12911 ft | 346 kts | 127° |
| 2026-05-05 04:49 | 14.28261 | 121.39590 | 13448 ft | 349 kts | 127° |
| 2026-05-05 04:49 | 14.26755 | 121.41544 | 13998 ft | 351 kts | 127° |
| 2026-05-05 04:49 | 14.25209 | 121.43552 | 14533 ft | 354 kts | 127° |
| 2026-05-05 04:49 | 14.23692 | 121.45519 | 15053 ft | 356 kts | 127° |
| 2026-05-05 04:50 | 14.22131 | 121.47544 | 15567 ft | 359 kts | 127° |
| 2026-05-05 04:50 | 14.20572 | 121.49566 | 16033 ft | 361 kts | 127° |
| 2026-05-05 04:50 | 14.19012 | 121.51588 | 16526 ft | 364 kts | 127° |
| 2026-05-05 04:50 | 14.17428 | 121.53643 | 16976 ft | 367 kts | 128° |
| 2026-05-05 04:51 | 14.15838 | 121.55704 | 17424 ft | 369 kts | 128° |
| 2026-05-05 04:51 | 14.14232 | 121.57783 | 17872 ft | 371 kts | 128° |
| 2026-05-05 04:51 | 14.12622 | 121.59869 | 18299 ft | 373 kts | 128° |
| 2026-05-05 04:51 | 14.10996 | 121.61924 | 18691 ft | 376 kts | 130° |
| 2026-05-05 04:52 | 14.09181 | 121.63875 | 19087 ft | 379 kts | 136° |
| 2026-05-05 04:52 | 14.07120 | 121.65699 | 19503 ft | 382 kts | 141° |
| 2026-05-05 04:52 | 14.04849 | 121.67456 | 19931 ft | 384 kts | 143° |
| 2026-05-05 04:52 | 14.02706 | 121.69079 | 20282 ft | 387 kts | 143° |
| 2026-05-05 04:53 | 14.00511 | 121.70740 | 20646 ft | 389 kts | 143° |
| 2026-05-05 04:53 | 13.98319 | 121.72403 | 21018 ft | 392 kts | 143° |
| 2026-05-05 04:53 | 13.96118 | 121.74078 | 21365 ft | 394 kts | 143° |
| 2026-05-05 04:53 | 13.93923 | 121.75751 | 21698 ft | 397 kts | 143° |
| 2026-05-05 04:54 | 13.91695 | 121.77447 | 22034 ft | 399 kts | 143° |
| 2026-05-05 04:54 | 13.89438 | 121.79165 | 22369 ft | 401 kts | 143° |
| 2026-05-05 04:54 | 13.87042 | 121.80830 | 22725 ft | 403 kts | 147° |
| 2026-05-05 04:54 | 13.84587 | 121.82300 | 23149 ft | 403 kts | 151° |
| 2026-05-05 04:55 | 13.82101 | 121.83583 | 23628 ft | 401 kts | 154° |
| 2026-05-05 04:55 | 13.79581 | 121.84828 | 24093 ft | 399 kts | 154° |
| 2026-05-05 04:55 | 13.77058 | 121.86068 | 24530 ft | 399 kts | 154° |
| 2026-05-05 04:55 | 13.74551 | 121.87301 | 24971 ft | 397 kts | 154° |
| 2026-05-05 04:56 | 13.72074 | 121.88522 | 25385 ft | 397 kts | 154° |
| 2026-05-05 04:56 | 13.69558 | 121.89763 | 25757 ft | 398 kts | 154° |
| 2026-05-05 04:56 | 13.67043 | 121.91005 | 26079 ft | 400 kts | 154° |
| 2026-05-05 04:56 | 13.64541 | 121.92240 | 26386 ft | 402 kts | 154° |
| 2026-05-05 04:57 | 13.62021 | 121.93485 | 26718 ft | 403 kts | 154° |
| 2026-05-05 04:57 | 13.59460 | 121.94749 | 26864 ft | 404 kts | 154° |
| 2026-05-05 04:57 | 13.56936 | 121.95995 | 26866 ft | 405 kts | 154° |
| 2026-05-05 04:57 | 13.54377 | 121.97257 | 26872 ft | 414 kts | 154° |
| 2026-05-05 04:58 | 13.51739 | 121.98557 | 26874 ft | 424 kts | 154° |
| 2026-05-05 04:58 | 13.49030 | 121.99893 | 26875 ft | 433 kts | 154° |
| 2026-05-05 04:58 | 13.46285 | 122.01247 | 26880 ft | 441 kts | 154° |
| 2026-05-05 04:58 | 13.43411 | 122.02663 | 26883 ft | 449 kts | 154° |
| 2026-05-05 04:59 | 13.40501 | 122.04098 | 26889 ft | 452 kts | 154° |
| 2026-05-05 04:59 | 13.37590 | 122.05532 | 26899 ft | 459 kts | 154° |
| 2026-05-05 04:59 | 13.34611 | 122.06999 | 26908 ft | 464 kts | 154° |
| 2026-05-05 04:59 | 13.31624 | 122.08470 | 26917 ft | 465 kts | 154° |
| 2026-05-05 05:00 | 13.28655 | 122.09932 | 26925 ft | 465 kts | 154° |
| 2026-05-05 05:00 | 13.25711 | 122.11382 | 26929 ft | 466 kts | 154° |
| 2026-05-05 05:00 | 13.22770 | 122.12830 | 26929 ft | 465 kts | 154° |
| 2026-05-05 05:00 | 13.19799 | 122.14293 | 26924 ft | 465 kts | 154° |
| 2026-05-05 05:01 | 13.16828 | 122.15754 | 26917 ft | 465 kts | 154° |
| 2026-05-05 05:01 | 13.13853 | 122.17217 | 26909 ft | 465 kts | 154° |
| 2026-05-05 05:01 | 13.10921 | 122.18658 | 26901 ft | 465 kts | 154° |
| 2026-05-05 05:01 | 13.07932 | 122.20126 | 26896 ft | 464 kts | 154° |
| 2026-05-05 05:02 | 13.04969 | 122.21582 | 26891 ft | 464 kts | 154° |
| 2026-05-05 05:02 | 13.02010 | 122.23035 | 26885 ft | 465 kts | 154° |
| 2026-05-05 05:02 | 12.99051 | 122.24487 | 26626 ft | 463 kts | 154° |
| 2026-05-05 05:02 | 12.96151 | 122.25911 | 26021 ft | 458 kts | 154° |
| 2026-05-05 05:03 | 12.93237 | 122.27340 | 25325 ft | 453 kts | 154° |
| 2026-05-05 05:03 | 12.90380 | 122.28742 | 24655 ft | 448 kts | 154° |
| 2026-05-05 05:03 | 12.87297 | 122.30255 | 23829 ft | 445 kts | 154° |
| 2026-05-05 05:03 | 12.84192 | 122.31777 | 23084 ft | 439 kts | 154° |
| 2026-05-05 05:04 | 12.81350 | 122.33171 | 22537 ft | 431 kts | 153° |
| 2026-05-05 05:04 | 12.78646 | 122.34495 | 22011 ft | 424 kts | 153° |
| 2026-05-05 05:04 | 12.75960 | 122.35813 | 21496 ft | 417 kts | 153° |
| 2026-05-05 05:04 | 12.73326 | 122.37103 | 20983 ft | 411 kts | 153° |
| 2026-05-05 05:05 | 12.70773 | 122.38354 | 20428 ft | 406 kts | 153° |
| 2026-05-05 05:05 | 12.68183 | 122.39623 | 19833 ft | 403 kts | 153° |
| 2026-05-05 05:05 | 12.65647 | 122.40865 | 19256 ft | 400 kts | 153° |
| 2026-05-05 05:05 | 12.63132 | 122.42097 | 18687 ft | 397 kts | 153° |
| 2026-05-05 05:06 | 12.60593 | 122.43340 | 18106 ft | 394 kts | 153° |
| 2026-05-05 05:06 | 12.58113 | 122.44553 | 17545 ft | 391 kts | 153° |
| 2026-05-05 05:06 | 12.55651 | 122.45757 | 17006 ft | 387 kts | 153° |
| 2026-05-05 05:06 | 12.53238 | 122.46938 | 16487 ft | 384 kts | 153° |
| 2026-05-05 05:07 | 12.50822 | 122.48121 | 15958 ft | 381 kts | 153° |
| 2026-05-05 05:07 | 12.48431 | 122.49290 | 15440 ft | 378 kts | 153° |
| 2026-05-05 05:07 | 12.46076 | 122.50441 | 14931 ft | 375 kts | 153° |
| 2026-05-05 05:07 | 12.43699 | 122.51604 | 14412 ft | 372 kts | 153° |
| 2026-05-05 05:08 | 12.41371 | 122.52741 | 13893 ft | 369 kts | 153° |
| 2026-05-05 05:08 | 12.39049 | 122.53868 | 13364 ft | 367 kts | 154° |
| 2026-05-05 05:08 | 12.36681 | 122.54851 | 12831 ft | 365 kts | 159° |
| 2026-05-05 05:08 | 12.34254 | 122.55624 | 12303 ft | 363 kts | 163° |
| 2026-05-05 05:09 | 12.31812 | 122.56287 | 11776 ft | 360 kts | 163° |
| 2026-05-05 05:09 | 12.29366 | 122.56937 | 11251 ft | 356 kts | 163° |
| 2026-05-05 05:09 | 12.26967 | 122.57573 | 10673 ft | 354 kts | 163° |
| 2026-05-05 05:09 | 12.24617 | 122.58198 | 10362 ft | 344 kts | 163° |
| 2026-05-05 05:10 | 12.22286 | 122.58818 | 10203 ft | 329 kts | 163° |
| 2026-05-05 05:10 | 12.20084 | 122.59405 | 10066 ft | 314 kts | 163° |
| 2026-05-05 05:10 | 12.17976 | 122.59969 | 9854 ft | 304 kts | 162° |
| 2026-05-05 05:10 | 12.15948 | 122.60511 | 9578 ft | 298 kts | 162° |
| 2026-05-05 05:11 | 12.13937 | 122.61050 | 9231 ft | 294 kts | 162° |
| 2026-05-05 05:11 | 12.11954 | 122.61581 | 8773 ft | 295 kts | 162° |
| 2026-05-05 05:11 | 12.09921 | 122.62074 | 8339 ft | 295 kts | 166° |
| 2026-05-05 05:11 | 12.07868 | 122.62383 | 7938 ft | 295 kts | 171° |
| 2026-05-05 05:12 | 12.05843 | 122.62566 | 7557 ft | 293 kts | 172° |
| 2026-05-05 05:12 | 12.03780 | 122.62736 | 7179 ft | 291 kts | 172° |
| 2026-05-05 05:12 | 12.01737 | 122.62903 | 6806 ft | 288 kts | 172° |
| 2026-05-05 05:12 | 11.99757 | 122.63065 | 6446 ft | 286 kts | 172° |
| 2026-05-05 05:13 | 11.97756 | 122.63230 | 6083 ft | 284 kts | 172° |
| 2026-05-05 05:13 | 11.95774 | 122.63394 | 5726 ft | 281 kts | 171° |
| 2026-05-05 05:13 | 11.93820 | 122.63557 | 5371 ft | 279 kts | 171° |
| 2026-05-05 05:13 | 11.91888 | 122.63718 | 5022 ft | 277 kts | 171° |
| 2026-05-05 05:14 | 11.89943 | 122.63881 | 4668 ft | 275 kts | 172° |
| 2026-05-05 05:14 | 11.87902 | 122.64051 | 4296 ft | 273 kts | 172° |
| 2026-05-05 05:14 | 11.85809 | 122.64226 | 3914 ft | 272 kts | 172° |
| 2026-05-05 05:14 | 11.83920 | 122.64383 | 3649 ft | 266 kts | 172° |
| 2026-05-05 05:15 | 11.82114 | 122.64531 | 3618 ft | 251 kts | 171° |
| 2026-05-05 05:15 | 11.80373 | 122.64671 | 3580 ft | 237 kts | 171° |
| 2026-05-05 05:15 | 11.78744 | 122.64806 | 3539 ft | 228 kts | 171° |
| 2026-05-05 05:15 | 11.77148 | 122.64942 | 3482 ft | 227 kts | 171° |
| 2026-05-05 05:16 | 11.75532 | 122.65079 | 3342 ft | 219 kts | 171° |
| 2026-05-05 05:16 | 11.74045 | 122.65202 | 3204 ft | 211 kts | 171° |
| 2026-05-05 05:16 | 11.72613 | 122.65501 | 2986 ft | 202 kts | 147° |
| 2026-05-05 05:16 | 11.71460 | 122.66304 | 2765 ft | 193 kts | 137° |
| 2026-05-05 05:17 | 11.70421 | 122.67168 | 2492 ft | 190 kts | 136° |
| 2026-05-05 05:17 | 11.69404 | 122.68005 | 2214 ft | 185 kts | 137° |
| 2026-05-05 05:17 | 11.68421 | 122.68789 | 1978 ft | 171 kts | 138° |
| 2026-05-05 05:17 | 11.67508 | 122.69501 | 1759 ft | 158 kts | 138° |
| 2026-05-05 05:18 | 11.66662 | 122.70156 | 1524 ft | 145 kts | 137° |
| 2026-05-05 05:18 | 11.65882 | 122.70758 | 1319 ft | 135 kts | 137° |
| 2026-05-05 05:18 | 11.65117 | 122.71350 | 1158 ft | 134 kts | 137° |
| 2026-05-05 05:18 | 11.64361 | 122.71934 | 989 ft | 133 kts | 138° |
| 2026-05-05 05:19 | 11.63592 | 122.72501 | 791 ft | 133 kts | 140° |
| 2026-05-05 05:19 | 11.62829 | 122.73045 | 577 ft | 132 kts | 139° |
| 2026-05-05 05:19 | 11.62069 | 122.73603 | 390 ft | 132 kts | 139° |
| 2026-05-05 05:19 | 11.61333 | 122.74151 | 253 ft | 131 kts | 139° |
| 2026-05-05 05:20 | 11.60590 | 122.74689 | 97 ft | 131 kts | 139° |
| 2026-05-05 05:20 | 11.59877 | 122.75214 | 20 ft | 99 kts | 144° |
| 2026-05-05 05:20 | 11.59551 | 122.75449 | 20 ft | 30 kts | 144° |
| 2026-05-05 05:20 | 11.59456 | 122.75534 | 20 ft | 7 kts | 142° |
| 2026-05-05 05:21 | 11.59409 | 122.75553 | 20 ft | 7 kts | 176° |
| 2026-05-05 05:21 | 11.59387 | 122.75555 | 20 ft | 0 kts | 166° |
| 2026-05-05 05:21 | 11.59386 | 122.75557 | 20 ft | 0 kts | 118° |
| 2026-05-05 05:21 | 11.59388 | 122.75560 | 20 ft | 0 kts | 49° |
| 2026-05-05 05:22 | 11.59391 | 122.75560 | 20 ft | 0 kts | 347° |
| 2026-05-05 05:22 | 11.59407 | 122.75551 | 20 ft | 4 kts | 328° |
| 2026-05-05 05:22 | 11.59444 | 122.75524 | 20 ft | 8 kts | 325° |
| 2026-05-05 05:22 | 11.59504 | 122.75481 | 20 ft | 12 kts | 325° |
| 2026-05-05 05:23 | 11.59582 | 122.75426 | 20 ft | 15 kts | 324° |
| 2026-05-05 05:23 | 11.59676 | 122.75357 | 20 ft | 17 kts | 324° |
| 2026-05-05 05:23 | 11.59786 | 122.75279 | 20 ft | 20 kts | 325° |
| 2026-05-05 05:23 | 11.59909 | 122.75189 | 20 ft | 22 kts | 323° |
| 2026-05-05 05:24 | 11.60034 | 122.75098 | 20 ft | 19 kts | 324° |
| 2026-05-05 05:24 | 11.60090 | 122.75052 | 20 ft | 4 kts | 296° |
| 2026-05-05 05:24 | 11.60089 | 122.75008 | 20 ft | 6 kts | 263° |
| 2026-05-05 05:24 | 11.60083 | 122.74959 | 20 ft | 5 kts | 266° |
| 2026-05-05 05:25 | 11.60081 | 122.74931 | 20 ft | 2 kts | 266° |
| 2026-05-05 05:25 | 11.60081 | 122.74927 | 20 ft | 0 kts | 266° |